createdAt,value
2023-05-20T00:00:32.278Z,11.42
2023-05-20T00:03:18.135Z,11.40
2023-05-20T00:06:03.732Z,11.41
2023-05-20T00:08:48.779Z,11.43
2023-05-20T00:11:34.089Z,11.42
2023-05-20T00:14:19.387Z,11.41
2023-05-20T00:17:04.766Z,11.42
2023-05-20T00:19:50.138Z,11.39
2023-05-20T00:22:35.302Z,11.39
2023-05-20T00:25:20.724Z,11.38
2023-05-20T00:28:06.886Z,11.37
2023-05-20T00:30:52.227Z,11.37
2023-05-20T00:33:37.731Z,11.36
2023-05-20T00:36:23.329Z,11.36
2023-05-20T00:39:08.793Z,11.36
2023-05-20T00:41:54.048Z,11.36
2023-05-20T00:44:39.412Z,11.36
2023-05-20T00:47:30.214Z,11.33
2023-05-20T00:50:17.382Z,11.32
2023-05-20T00:53:03.923Z,11.31
2023-05-20T00:55:49.277Z,11.32
2023-05-20T00:58:36.915Z,11.31
2023-05-20T01:01:22.741Z,11.31
2023-05-20T01:04:08.695Z,11.32
2023-05-20T01:06:53.889Z,11.34
2023-05-20T01:09:39.405Z,11.32
2023-05-20T01:12:31.656Z,11.30
2023-05-20T01:15:18.982Z,11.32
2023-05-20T01:18:06.522Z,11.31
2023-05-20T01:20:54.724Z,11.31
2023-05-20T01:23:42.009Z,11.30
2023-05-20T01:26:27.503Z,11.30
2023-05-20T01:29:13.972Z,11.31
2023-05-20T01:32:01.560Z,11.31
2023-05-20T01:34:50.518Z,11.31
2023-05-20T01:37:38.486Z,11.31
2023-05-20T01:40:24.736Z,11.30
2023-05-20T01:43:11.026Z,11.30
2023-05-20T01:45:56.387Z,11.17
2023-05-20T01:48:41.663Z,11.10
2023-05-20T01:51:27.071Z,11.12
2023-05-20T01:54:12.505Z,11.17
2023-05-20T01:56:57.821Z,11.21
2023-05-20T01:59:42.979Z,11.23
2023-05-20T02:02:28.396Z,11.25
2023-05-20T02:05:13.558Z,11.28
2023-05-20T02:07:58.793Z,11.28
2023-05-20T02:10:44.110Z,11.28
2023-05-20T02:13:30.220Z,11.27
2023-05-20T02:16:15.555Z,11.30
2023-05-20T02:19:02.233Z,11.30
2023-05-20T02:21:49.046Z,11.29
2023-05-20T02:24:34.479Z,11.29
2023-05-20T02:27:19.672Z,11.30
2023-05-20T02:30:05.622Z,11.33
2023-05-20T02:32:50.913Z,11.32
2023-05-20T02:35:36.826Z,11.33
2023-05-20T02:38:22.112Z,11.31
2023-05-20T02:41:07.270Z,11.28
2023-05-20T02:43:52.574Z,11.27
2023-05-20T02:46:37.923Z,11.28
2023-05-20T02:49:24.413Z,11.28
2023-05-20T02:52:09.884Z,11.27
2023-05-20T02:54:55.223Z,11.27
2023-05-20T02:57:40.666Z,11.26
2023-05-20T03:00:28.763Z,11.26
2023-05-20T03:03:14.288Z,11.26
2023-05-20T03:05:59.625Z,11.27
2023-05-20T03:08:44.877Z,11.28
2023-05-20T03:11:30.349Z,11.25
2023-05-20T03:14:15.788Z,11.17
2023-05-20T03:17:01.021Z,11.09
2023-05-20T03:19:46.462Z,11.11
2023-05-20T03:22:31.882Z,11.20
2023-05-20T03:25:17.194Z,11.24
2023-05-20T03:28:02.474Z,11.29
2023-05-20T03:30:47.752Z,11.30
2023-05-20T03:33:35.599Z,11.35
2023-05-20T03:36:21.134Z,11.38
2023-05-20T03:39:06.752Z,11.40
2023-05-20T03:41:52.187Z,11.42
2023-05-20T03:44:37.499Z,11.37
2023-05-20T03:47:22.790Z,11.38
2023-05-20T03:50:08.249Z,11.41
2023-05-20T03:52:53.847Z,11.39
2023-05-20T03:55:39.646Z,11.44
2023-05-20T03:58:25.382Z,11.46
2023-05-20T04:01:13.320Z,11.46
2023-05-20T04:03:58.256Z,11.42
2023-05-20T04:06:43.573Z,11.43
2023-05-20T04:09:29.232Z,11.46
2023-05-20T04:12:14.754Z,11.52
2023-05-20T04:15:01.345Z,11.56
2023-05-20T04:17:48.552Z,11.60
2023-05-20T04:20:34.492Z,11.63
2023-05-20T04:23:19.517Z,11.63
2023-05-20T04:26:04.724Z,11.66
2023-05-20T04:28:50.491Z,11.64
2023-05-20T04:31:35.496Z,11.68
2023-05-20T04:34:26.800Z,11.67
2023-05-20T04:37:13.262Z,11.65
2023-05-20T04:39:58.714Z,11.61
2023-05-20T04:42:44.891Z,11.58
2023-05-20T04:45:30.363Z,11.58
2023-05-20T04:48:15.588Z,11.63
2023-05-20T04:51:00.905Z,11.69
2023-05-20T04:53:46.404Z,11.76
2023-05-20T04:56:31.502Z,11.80
2023-05-20T04:59:17.113Z,11.84
2023-05-20T05:02:02.333Z,11.89
2023-05-20T05:04:47.622Z,11.91
2023-05-20T05:07:32.929Z,11.89
2023-05-20T05:10:18.150Z,11.87
2023-05-20T05:13:03.759Z,11.87
2023-05-20T05:15:48.672Z,11.87
2023-05-20T05:18:34.114Z,11.86
2023-05-20T05:21:20.085Z,11.93
2023-05-20T05:24:05.733Z,12.01
2023-05-20T05:26:54.544Z,12.01
2023-05-20T05:29:39.935Z,12.00
2023-05-20T05:32:26.047Z,12.08
2023-05-20T05:35:11.549Z,12.12
2023-05-20T05:37:56.826Z,12.17
2023-05-20T05:40:42.370Z,12.17
2023-05-20T05:43:28.010Z,12.21
2023-05-20T05:46:13.251Z,12.26
2023-05-20T05:48:59.048Z,12.31
2023-05-20T05:51:44.320Z,12.27
2023-05-20T05:54:29.670Z,12.22
2023-05-20T05:57:15.462Z,12.24
2023-05-20T06:00:01.159Z,12.21
2023-05-20T06:02:48.097Z,12.28
2023-05-20T06:05:33.945Z,12.28
2023-05-20T06:08:19.346Z,12.30
2023-05-20T06:11:04.322Z,12.31
2023-05-20T06:13:50.073Z,12.29
2023-05-20T06:16:35.288Z,12.31
2023-05-20T06:19:20.459Z,12.36
2023-05-20T06:22:06.264Z,12.45
2023-05-20T06:24:51.514Z,12.51
2023-05-20T06:27:37.005Z,12.53
2023-05-20T06:30:22.422Z,12.61
2023-05-20T06:33:07.982Z,12.71
2023-05-20T06:35:54.979Z,12.68
2023-05-20T06:38:40.280Z,12.67
2023-05-20T06:41:26.573Z,12.68
2023-05-20T06:44:11.601Z,12.73
2023-05-20T06:46:56.773Z,12.77
2023-05-20T06:49:47.515Z,12.82
2023-05-20T06:52:32.972Z,12.93
2023-05-20T06:55:18.047Z,13.05
2023-05-20T06:58:03.538Z,13.13
2023-05-20T07:00:48.861Z,13.19
2023-05-20T07:03:34.144Z,13.24
2023-05-20T07:06:19.516Z,13.27
2023-05-20T07:09:05.504Z,13.40
2023-05-20T07:11:51.204Z,13.48
2023-05-20T07:14:36.284Z,13.54
2023-05-20T07:17:21.559Z,13.58
2023-05-20T07:20:08.249Z,13.66
2023-05-20T07:22:53.578Z,13.72
2023-05-20T07:25:38.854Z,13.78
2023-05-20T07:28:24.130Z,13.84
2023-05-20T07:31:09.351Z,13.97
2023-05-20T07:33:54.775Z,14.08
2023-05-20T07:36:39.980Z,14.14
2023-05-20T07:39:26.496Z,14.20
2023-05-20T07:42:11.481Z,14.31
2023-05-20T07:44:57.048Z,14.40
2023-05-20T07:47:42.335Z,14.47
2023-05-20T07:50:27.596Z,14.58
2023-05-20T07:53:13.156Z,14.71
2023-05-20T07:55:58.130Z,14.83
2023-05-20T07:58:43.846Z,14.91
2023-05-20T08:01:29.586Z,15.00
2023-05-20T08:04:14.817Z,15.17
2023-05-20T08:07:00.024Z,15.31
2023-05-20T08:09:45.076Z,15.41
2023-05-20T08:12:30.627Z,15.49
2023-05-20T08:15:15.850Z,15.54
2023-05-20T08:18:01.147Z,15.65
2023-05-20T08:20:47.747Z,15.85
2023-05-20T08:23:36.769Z,16.01
2023-05-20T08:26:24.140Z,16.19
2023-05-20T08:29:09.628Z,16.31
2023-05-20T08:31:54.607Z,16.39
2023-05-20T08:34:40.167Z,16.51
2023-05-20T08:37:25.261Z,16.66
2023-05-20T08:40:11.855Z,16.89
2023-05-20T08:42:59.168Z,17.06
2023-05-20T08:45:45.011Z,17.09
2023-05-20T08:48:32.012Z,17.25
2023-05-20T08:51:22.320Z,17.45
2023-05-20T08:54:09.686Z,17.59
2023-05-20T08:56:56.024Z,17.68
2023-05-20T08:59:46.922Z,17.84
2023-05-20T09:02:32.285Z,18.00
2023-05-20T09:05:18.306Z,18.23
2023-05-20T09:08:12.059Z,18.39
2023-05-20T09:10:57.216Z,18.53
2023-05-20T09:13:42.333Z,18.64
2023-05-20T09:16:27.546Z,18.69
2023-05-20T09:19:13.005Z,18.76
2023-05-20T09:21:58.533Z,18.96
2023-05-20T09:24:44.110Z,19.11
2023-05-20T09:27:29.496Z,19.17
2023-05-20T09:30:14.672Z,19.36
2023-05-20T09:33:03.693Z,19.46
2023-05-20T09:35:49.705Z,19.51
2023-05-20T09:38:40.376Z,19.54
2023-05-20T09:41:32.233Z,19.61
2023-05-20T09:44:18.442Z,19.80
2023-05-20T09:47:08.603Z,19.87
2023-05-20T09:49:54.410Z,19.89
2023-05-20T09:52:40.154Z,20.02
2023-05-20T09:55:26.196Z,20.10
2023-05-20T09:58:16.153Z,20.21
2023-05-20T10:01:02.052Z,20.20
2023-05-20T10:03:47.501Z,20.22
2023-05-20T10:06:45.394Z,20.36
2023-05-20T10:09:51.105Z,20.38
2023-05-20T10:12:48.739Z,20.31
2023-05-20T10:16:05.631Z,20.31
2023-05-20T10:19:01.683Z,20.44
2023-05-20T10:21:58.054Z,20.57
2023-05-20T10:24:44.393Z,20.69
2023-05-20T10:27:29.489Z,20.68
2023-05-20T10:30:33.361Z,20.74
2023-05-20T10:33:19.618Z,20.84
2023-05-20T10:36:05.003Z,20.99
2023-05-20T10:38:58.501Z,21.04
2023-05-20T10:41:43.944Z,21.09
2023-05-20T10:44:29.166Z,21.09
2023-05-20T10:50:05.002Z,21.23
2023-05-20T10:52:50.336Z,21.22
2023-05-20T10:55:38.139Z,21.28
2023-05-20T10:58:24.854Z,21.35
2023-05-20T11:01:11.036Z,21.48
2023-05-20T11:03:57.855Z,21.58
2023-05-20T11:06:54.197Z,21.59
2023-05-20T11:09:39.838Z,21.50
2023-05-20T11:12:27.005Z,21.44
2023-05-20T11:15:13.296Z,21.59
2023-05-20T11:18:02.746Z,21.70
2023-05-20T11:20:48.560Z,21.76
2023-05-20T11:23:33.714Z,21.71
2023-05-20T11:26:18.952Z,21.54
2023-05-20T11:29:04.882Z,21.45
2023-05-20T11:31:52.199Z,21.51
2023-05-20T11:34:38.649Z,21.50
2023-05-20T11:37:24.420Z,21.38
2023-05-20T11:40:10.260Z,21.31
2023-05-20T11:42:57.444Z,21.27
2023-05-20T11:45:48.530Z,21.16
2023-05-20T11:48:33.914Z,21.10
2023-05-20T11:51:19.208Z,21.02
2023-05-20T11:54:06.099Z,20.95
2023-05-20T11:56:51.751Z,20.88
2023-05-20T11:59:37.461Z,20.84
2023-05-20T12:02:22.801Z,20.85
2023-05-20T12:05:08.500Z,20.83
2023-05-20T12:07:54.454Z,20.84
2023-05-20T12:10:40.836Z,20.99
2023-05-20T12:13:26.507Z,20.97
2023-05-20T12:16:11.695Z,21.10
2023-05-20T12:18:57.113Z,21.20
2023-05-20T12:21:42.456Z,21.15
2023-05-20T12:24:27.658Z,21.02
2023-05-20T12:27:13.096Z,20.89
2023-05-20T12:29:58.422Z,20.79
2023-05-20T12:32:44.592Z,20.70
2023-05-20T12:35:41.275Z,20.68
2023-05-20T12:38:26.391Z,20.67
2023-05-20T12:41:11.950Z,20.73
2023-05-20T12:43:57.001Z,20.85
2023-05-20T12:46:42.616Z,20.92
2023-05-20T12:49:28.066Z,20.92
2023-05-20T12:52:21.891Z,20.90
2023-05-20T12:55:13.847Z,20.94
2023-05-20T12:57:59.366Z,20.99
2023-05-20T13:00:44.656Z,20.99
2023-05-20T13:03:29.833Z,20.95
2023-05-20T13:06:14.945Z,20.92
2023-05-20T13:09:00.134Z,20.93
2023-05-20T13:11:45.395Z,20.89
2023-05-20T13:14:30.748Z,20.86
2023-05-20T13:17:16.341Z,20.89
2023-05-20T13:20:01.425Z,20.92
2023-05-20T13:22:46.588Z,21.01
2023-05-20T13:25:32.096Z,21.16
2023-05-20T13:28:20.774Z,21.30
2023-05-20T13:31:09.168Z,21.37
2023-05-20T13:33:55.322Z,21.37
2023-05-20T13:36:40.724Z,21.29
2023-05-20T13:39:26.011Z,21.26
2023-05-20T13:42:11.493Z,21.30
2023-05-20T13:44:56.672Z,21.28
2023-05-20T13:47:42.112Z,21.31
2023-05-20T13:50:27.228Z,21.37
2023-05-20T13:53:13.888Z,21.42
2023-05-20T13:55:59.807Z,21.38
2023-05-20T13:58:45.678Z,21.26
2023-05-20T14:01:33.300Z,21.18
2023-05-20T14:04:18.528Z,21.12
2023-05-20T14:07:06.530Z,21.14
2023-05-20T14:09:53.167Z,21.11
2023-05-20T14:12:38.498Z,21.13
2023-05-20T14:15:23.881Z,21.16
2023-05-20T14:18:09.230Z,21.24
2023-05-20T14:20:54.650Z,21.41
2023-05-20T14:23:45.175Z,21.53
2023-05-20T14:26:30.670Z,21.50
2023-05-20T14:29:16.122Z,21.43
2023-05-20T14:32:01.528Z,21.36
2023-05-20T14:34:46.686Z,21.30
2023-05-20T14:37:31.953Z,21.33
2023-05-20T14:40:17.388Z,21.32
2023-05-20T14:43:02.803Z,21.28
2023-05-20T14:45:49.018Z,21.23
2023-05-20T14:48:34.399Z,21.19
2023-05-20T14:51:19.677Z,21.13
2023-05-20T14:54:06.074Z,21.08
2023-05-20T14:56:52.016Z,21.08
2023-05-20T14:59:37.792Z,21.08
2023-05-20T15:02:23.301Z,21.18
2023-05-20T15:05:08.833Z,21.27
2023-05-20T15:07:54.425Z,21.40
2023-05-20T15:10:39.679Z,21.51
2023-05-20T15:13:25.038Z,21.63
2023-05-20T15:16:10.455Z,21.68
2023-05-20T15:18:55.637Z,21.76
2023-05-20T15:21:41.026Z,21.84
2023-05-20T15:24:26.257Z,21.85
2023-05-20T15:27:11.612Z,21.88
2023-05-20T15:29:56.915Z,21.83
2023-05-20T15:32:42.895Z,21.77
2023-05-20T15:35:28.248Z,21.77
2023-05-20T15:38:14.809Z,21.72
2023-05-20T15:40:59.835Z,21.68
2023-05-20T15:43:45.195Z,21.69
2023-05-20T15:46:31.355Z,21.66
2023-05-20T15:49:16.989Z,21.68
2023-05-20T15:52:04.011Z,21.78
2023-05-20T15:54:49.594Z,21.85
2023-05-20T15:57:34.989Z,21.92
2023-05-20T16:00:21.175Z,21.92
2023-05-20T16:03:06.569Z,21.96
2023-05-20T16:05:51.822Z,21.94
2023-05-20T16:08:37.700Z,21.93
2023-05-20T16:11:23.715Z,21.95
2023-05-20T16:14:09.205Z,21.95
2023-05-20T16:16:54.546Z,21.81
2023-05-20T16:19:40.075Z,21.67
2023-05-20T16:22:25.552Z,21.48
2023-05-20T16:25:11.311Z,21.21
2023-05-20T16:27:57.922Z,20.93
2023-05-20T16:30:43.237Z,20.71
2023-05-20T16:33:28.337Z,20.55
2023-05-20T16:36:13.467Z,20.43
2023-05-20T16:38:58.470Z,20.37
2023-05-20T16:41:43.959Z,20.25
2023-05-20T16:44:29.232Z,20.16
2023-05-20T16:47:14.603Z,20.04
2023-05-20T16:49:59.840Z,19.92
2023-05-20T16:52:45.699Z,19.86
2023-05-20T16:55:31.267Z,19.81
2023-05-20T16:58:16.362Z,19.73
2023-05-20T17:01:02.001Z,19.68
2023-05-20T17:03:47.478Z,19.66
2023-05-20T17:06:34.237Z,19.65
2023-05-20T17:09:19.953Z,19.64
2023-05-20T17:12:05.939Z,19.68
2023-05-20T17:14:50.897Z,19.74
2023-05-20T17:17:36.161Z,19.79
2023-05-20T17:20:21.867Z,19.87
2023-05-20T17:23:07.191Z,19.91
2023-05-20T17:25:52.696Z,19.89
2023-05-20T17:28:37.942Z,19.89
2023-05-20T17:31:22.916Z,19.87
2023-05-20T17:34:08.366Z,19.82
2023-05-20T17:36:54.268Z,19.78
2023-05-20T17:39:41.402Z,19.70
2023-05-20T17:42:26.490Z,19.61
2023-05-20T17:45:11.937Z,19.55
2023-05-20T17:47:57.792Z,19.44
2023-05-20T17:50:42.877Z,19.36
2023-05-20T17:53:28.218Z,19.27
2023-05-20T17:56:13.978Z,19.16
2023-05-20T17:58:59.096Z,19.04
2023-05-20T18:01:44.781Z,18.96
2023-05-20T18:04:30.032Z,18.88
2023-05-20T18:07:15.505Z,18.77
2023-05-20T18:10:01.041Z,18.64
2023-05-20T18:12:46.425Z,18.54
2023-05-20T18:15:31.807Z,18.44
2023-05-20T18:18:16.708Z,18.34
2023-05-20T18:21:05.900Z,18.21
2023-05-20T18:23:51.615Z,18.14
2023-05-20T18:26:36.913Z,18.04
2023-05-20T18:29:23.382Z,17.96
2023-05-20T18:32:08.963Z,17.87
2023-05-20T18:34:54.299Z,17.77
2023-05-20T18:37:39.663Z,17.68
2023-05-20T18:40:25.315Z,17.57
2023-05-20T18:43:10.555Z,17.49
2023-05-20T18:45:56.361Z,17.40
2023-05-20T18:48:42.029Z,17.27
2023-05-20T18:51:33.184Z,17.16
2023-05-20T18:54:18.479Z,17.03
2023-05-20T18:57:08.158Z,16.93
2023-05-20T18:59:53.498Z,16.84
2023-05-20T19:02:40.143Z,16.77
2023-05-20T19:05:25.954Z,16.71
2023-05-20T19:08:11.406Z,16.64
2023-05-20T19:10:56.470Z,16.58
2023-05-20T19:13:41.742Z,16.52
2023-05-20T19:16:26.930Z,16.44
2023-05-20T19:19:12.210Z,16.33
2023-05-20T19:21:57.618Z,16.24
2023-05-20T19:24:43.029Z,16.14
2023-05-20T19:27:28.228Z,16.09
2023-05-20T19:30:13.781Z,16.05
2023-05-20T19:33:04.030Z,16.02
2023-05-20T19:35:49.582Z,16.00
2023-05-20T19:38:34.901Z,15.96
2023-05-20T19:41:20.157Z,15.92
2023-05-20T19:44:05.930Z,15.91
2023-05-20T19:46:51.632Z,15.91
2023-05-20T19:49:37.039Z,15.88
2023-05-20T19:52:22.509Z,15.86
2023-05-20T19:55:08.507Z,15.82
2023-05-20T19:57:54.136Z,15.79
2023-05-20T20:00:39.563Z,15.72
2023-05-20T20:03:24.810Z,15.65
2023-05-20T20:06:11.007Z,15.63
2023-05-20T20:08:57.100Z,15.58
2023-05-20T20:11:43.420Z,15.53
2023-05-20T20:14:32.295Z,15.46
2023-05-20T20:17:17.940Z,15.41
2023-05-20T20:20:07.336Z,15.37
2023-05-20T20:22:52.675Z,15.28
2023-05-20T20:25:39.066Z,15.22
2023-05-20T20:28:24.224Z,15.15
2023-05-20T20:31:09.521Z,15.10
2023-05-20T20:33:54.980Z,15.05
2023-05-20T20:36:40.821Z,14.99
2023-05-20T20:39:25.845Z,14.93
2023-05-20T20:42:11.242Z,14.85
2023-05-20T20:44:56.509Z,14.77
2023-05-20T20:47:43.957Z,14.70
2023-05-20T20:50:29.200Z,14.64
2023-05-20T20:53:17.020Z,14.55
2023-05-20T20:56:02.429Z,14.52
2023-05-20T20:58:48.022Z,14.45
2023-05-20T21:01:37.818Z,14.36
2023-05-20T21:04:25.002Z,14.30
2023-05-20T21:07:10.453Z,14.25
2023-05-20T21:09:56.060Z,14.20
2023-05-20T21:12:41.543Z,14.18
2023-05-20T21:15:27.437Z,14.14
2023-05-20T21:18:13.440Z,14.13
2023-05-20T21:20:58.726Z,14.08
2023-05-20T21:23:44.020Z,13.98
2023-05-20T21:26:29.371Z,13.95
2023-05-20T21:29:14.705Z,13.89
2023-05-20T21:31:59.963Z,13.87
2023-05-20T21:34:45.363Z,13.86
2023-05-20T21:37:30.853Z,13.82
2023-05-20T21:40:16.616Z,13.76
2023-05-20T21:43:01.871Z,13.72
2023-05-20T21:45:47.223Z,13.70
2023-05-20T21:48:32.599Z,13.66
2023-05-20T21:51:17.857Z,13.64
2023-05-20T21:54:03.396Z,13.59
2023-05-20T21:56:48.586Z,13.55
2023-05-20T21:59:33.930Z,13.51
2023-05-20T22:02:19.657Z,13.47
2023-05-20T22:05:05.271Z,13.43
2023-05-20T22:07:51.489Z,13.38
2023-05-20T22:10:37.103Z,13.35
2023-05-20T22:13:26.109Z,13.35
2023-05-20T22:16:11.344Z,13.32
2023-05-20T22:18:57.063Z,13.30
2023-05-20T22:21:50.226Z,13.28
2023-05-20T22:24:36.321Z,13.21
2023-05-20T22:27:21.710Z,13.16
2023-05-20T22:30:08.373Z,13.10
2023-05-20T22:32:53.601Z,13.03
2023-05-20T22:35:39.084Z,12.99
2023-05-20T22:38:24.264Z,12.97
2023-05-20T22:41:09.505Z,12.94
2023-05-20T22:43:56.773Z,12.89
2023-05-20T22:46:42.250Z,12.86
2023-05-20T22:49:28.143Z,12.81
2023-05-20T22:52:13.182Z,12.79
2023-05-20T22:54:58.733Z,12.74
2023-05-20T22:57:43.825Z,12.69
2023-05-20T23:00:29.575Z,12.65
2023-05-20T23:03:15.068Z,12.64
2023-05-20T23:06:00.673Z,12.66
2023-05-20T23:08:45.730Z,12.61
2023-05-20T23:11:30.865Z,12.60
2023-05-20T23:14:16.416Z,12.56
2023-05-20T23:17:01.701Z,12.54
2023-05-20T23:19:47.411Z,12.55
2023-05-20T23:22:33.209Z,12.50
2023-05-20T23:25:18.380Z,12.47
2023-05-20T23:28:04.010Z,12.43
2023-05-20T23:30:49.542Z,12.42
2023-05-20T23:33:35.017Z,12.38
2023-05-20T23:36:20.195Z,12.38
2023-05-20T23:39:05.362Z,12.36
2023-05-20T23:41:50.775Z,12.34
2023-05-20T23:44:36.085Z,12.33
2023-05-20T23:47:21.422Z,12.33
2023-05-20T23:50:06.908Z,12.29
2023-05-20T23:52:52.265Z,12.29
2023-05-20T23:55:37.691Z,12.23
2023-05-20T23:58:23.597Z,12.20
